^^
Station Historical Data
Daily Summary for March 31, 2017 Units:  English    Metric   Both
« Previous Day
Next Day »
Daily Weekly Monthly Yearly Custom
  High: Low: Average:
Temperature: 40.8 °F 34.4 °F 36.5 °F
Dew Point: 36.9 °F 32.6 °F 34.8 °F
Humidity: 96% 76% 93%
Wind Speed: 7.0mph 0.0mph 1.3mph
Wind Gust: 20.0mph - -
Wind- - ESE
Pressure: 30.17 in 29.76 in -
Precipitation: 1.31 in    
Historical Graphs
 
 
Tabular Data for March 31, 2017
Time Temperature Dew Point Pressure Wind Wind Speed Wind Gust Humidity Rainfall Rate (Hourly) Conditions
00:00 40.8 °F 34.1 °F 30.16 in Calm   4.0 mph 77% 0.00 in -RA
00:15 40.8 °F 34.1 °F 30.15 in Calm   2.0 mph 77% 0.00 in -RA
00:30 40.6 °F 34.0 °F 30.15 in Calm   3.0 mph 77% 0.00 in -RA
00:45 40.5 °F 33.5 °F 30.15 in Calm   2.0 mph 76% 0.00 in -RA
01:00 40.4 °F 33.8 °F 30.16 in Calm   3.0 mph 77% 0.00 in -RA
02:15 38.6 °F 35.1 °F 30.16 in Calm   3.0 mph 87% 0.01 in BKN
02:30 38.1 °F 35.1 °F 30.15 in Calm   1.0 mph 89% 0.01 in BKN
02:45 37.9 °F 35.2 °F 30.15 in Calm   1.0 mph 90% 0.02 in RA
03:00 37.1 °F 34.5 °F 30.17 in Calm   2.0 mph 90% 0.02 in RA
03:15 36.5 °F 34.1 °F 30.17 in North 1.0 mph 1.0 mph 91% 0.04 in -RA
03:30 35.9 °F 33.8 °F 30.17 in Calm   2.0 mph 92% 0.01 in -RA
03:45 35.7 °F 33.6 °F 30.17 in Calm     92% 0.02 in -RA
04:00 35.2 °F 33.1 °F 30.15 in Calm   1.0 mph 92% 0.01 in -RA
04:15 34.7 °F 32.9 °F 30.15 in Calm   2.0 mph 93% 0.02 in RA
04:30 34.4 °F 32.6 °F 30.14 in Calm   2.0 mph 93% 0.02 in RA
04:45 34.4 °F 32.9 °F 30.14 in Calm   1.0 mph 94% 0.02 in RA
05:00 34.6 °F 33.1 °F 30.14 in Calm   2.0 mph 94% 0.01 in RA
05:15 34.7 °F 33.2 °F 30.14 in Calm   3.0 mph 94% 0.01 in -RA
05:30 34.7 °F 33.2 °F 30.14 in Calm   1.0 mph 94% 0.00 in -RA
05:45 34.7 °F 33.2 °F 30.12 in Calm   3.0 mph 94% 0.01 in -RA
06:00 34.7 °F 33.4 °F 30.12 in Calm   6.0 mph 95% 0.00 in -RA
06:15 34.9 °F 33.6 °F 30.12 in Calm   2.0 mph 95% 0.01 in -RA
06:30 34.9 °F 33.6 °F 30.11 in Calm   3.0 mph 95% 0.01 in -RA
06:45 35.1 °F 33.8 °F 30.11 in Calm   2.0 mph 95% 0.01 in -RA
07:00 35.1 °F 33.8 °F 30.11 in Calm   4.0 mph 95% 0.01 in -RA
07:15 35.2 °F 33.9 °F 30.11 in Calm   2.0 mph 95% 0.00 in -RA
07:30 35.3 °F 34.0 °F 30.10 in Calm   4.0 mph 95% 0.01 in -RA
07:45 35.4 °F 34.1 °F 30.11 in Calm   5.0 mph 95% 0.00 in -RA
08:00 35.5 °F 34.2 °F 30.11 in Calm   3.0 mph 95% 0.01 in -RA
08:15 35.7 °F 34.4 °F 30.11 in Calm   3.0 mph 95% 0.02 in -RA
08:30 35.9 °F 34.6 °F 30.10 in Calm   3.0 mph 95% 0.02 in -RA
08:45 35.9 °F 34.6 °F 30.10 in Calm   1.0 mph 95% 0.01 in -RA
09:00 36.0 °F 34.7 °F 30.09 in NNE 1.0 mph 3.0 mph 95% 0.01 in -RA
09:15 36.1 °F 34.8 °F 30.08 in Calm   4.0 mph 95% 0.01 in -RA
09:30 36.2 °F 34.9 °F 30.07 in ENE 2.0 mph 6.0 mph 95% 0.01 in -RA
09:45 36.3 °F 35.0 °F 30.07 in NNE 1.0 mph 6.0 mph 95% 0.01 in -RA
10:00 36.4 °F 35.1 °F 30.07 in NE 1.0 mph 4.0 mph 95% 0.01 in -RA
10:15 36.5 °F 35.2 °F 30.07 in Calm   6.0 mph 95% 0.01 in -RA
10:30 36.6 °F 35.3 °F 30.06 in ENE 2.0 mph 7.0 mph 95% 0.01 in -RA
10:45 36.7 °F 35.4 °F 30.06 in NNW 1.0 mph 8.0 mph 95% 0.00 in -RA
11:00 36.8 °F 35.5 °F 30.05 in NNE 2.0 mph 8.0 mph 95% 0.01 in -RA
11:15 37.0 °F 36.0 °F 30.05 in ENE 1.0 mph 6.0 mph 96% 0.01 in -RA
11:30 37.2 °F 36.1 °F 30.04 in NNE 1.0 mph 6.0 mph 96% 0.01 in -RA
11:45 37.3 °F 36.0 °F 30.04 in NE 2.0 mph 8.0 mph 95% 0.00 in -RA
12:00 37.6 °F 36.6 °F 30.03 in ENE 2.0 mph 12.0 mph 96% 0.02 in -RA
12:15 37.9 °F 36.9 °F 30.03 in NE 3.0 mph 6.0 mph 96% 0.03 in -RA
12:30 38.0 °F 36.7 °F 30.02 in ENE 2.0 mph 7.0 mph 95% 0.02 in -RA
12:45 38.0 °F 36.7 °F 30.02 in ENE 1.0 mph 9.0 mph 95% 0.02 in -RA
13:00 37.9 °F 36.6 °F 30.01 in NNE 2.0 mph 9.0 mph 95% 0.02 in -RA
13:15 38.0 °F 36.7 °F 30.01 in ENE 3.0 mph 9.0 mph 95% 0.02 in -RA
13:30 37.9 °F 36.6 °F 30.00 in ENE 2.0 mph 7.0 mph 95% 0.01 in -RA
13:45 37.9 °F 36.6 °F 30.00 in North 2.0 mph 12.0 mph 95% 0.02 in -RA
14:00 38.0 °F 36.7 °F 29.99 in NNE 1.0 mph 10.0 mph 95% 0.02 in -RA
14:15 37.9 °F 36.6 °F 29.99 in Calm   12.0 mph 95% 0.01 in -RA
14:30 37.7 °F 36.4 °F 29.98 in NE 2.0 mph 10.0 mph 95% 0.02 in -RA
14:45 37.5 °F 36.2 °F 29.97 in ESE 3.0 mph 15.0 mph 95% 0.02 in -RA
15:00 37.4 °F 36.1 °F 29.96 in NW 2.0 mph 8.0 mph 95% 0.02 in -RA
15:15 36.9 °F 35.3 °F 29.95 in North 1.0 mph 13.0 mph 94% 0.02 in -RA
15:30 36.8 °F 35.2 °F 29.94 in NE 2.0 mph 10.0 mph 94% 0.01 in -RA
15:45 36.6 °F 35.0 °F 29.93 in ESE 1.0 mph 13.0 mph 94% 0.01 in -RA
16:00 36.6 °F 35.0 °F 29.93 in South 2.0 mph 13.0 mph 94% 0.02 in -RA
16:15 36.5 °F 34.9 °F 29.91 in East 2.0 mph 12.0 mph 94% 0.01 in -RA
16:30 36.4 °F 34.8 °F 29.90 in East 2.0 mph 12.0 mph 94% 0.02 in -RA
16:45 36.2 °F 34.6 °F 29.90 in NNE 1.0 mph 12.0 mph 94% 0.01 in -RA
17:00 36.2 °F 34.6 °F 29.89 in NNE 2.0 mph 16.0 mph 94% 0.02 in -RA
17:15 36.2 °F 34.6 °F 29.87 in NE 3.0 mph 16.0 mph 94% 0.02 in -RA
17:30 36.2 °F 34.6 °F 29.86 in ENE 3.0 mph 9.0 mph 94% 0.02 in -RA
17:45 36.2 °F 34.6 °F 29.85 in NNW 1.0 mph 14.0 mph 94% 0.01 in -RA
18:00 36.2 °F 34.6 °F 29.84 in NE 3.0 mph 20.0 mph 94% 0.01 in -RA
18:15 36.1 °F 34.8 °F 29.84 in NE 2.0 mph 13.0 mph 95% 0.01 in -RA
18:30 36.1 °F 34.8 °F 29.84 in East 3.0 mph 16.0 mph 95% 0.02 in -RA
18:45 36.1 °F 34.8 °F 29.84 in East 2.0 mph 14.0 mph 95% 0.03 in -RA
19:00 36.2 °F 34.9 °F 29.84 in SE 3.0 mph 12.0 mph 95% 0.03 in -RA
19:15 36.1 °F 34.8 °F 29.84 in NW 2.0 mph 13.0 mph 95% 0.05 in -RA
19:30 36.1 °F 34.8 °F 29.83 in ENE 3.0 mph 13.0 mph 95% 0.04 in -RA
19:45 36.0 °F 34.7 °F 29.82 in ENE 3.0 mph 12.0 mph 95% 0.02 in -RA
20:00 35.9 °F 34.6 °F 29.81 in NNW 2.0 mph 12.0 mph 95% 0.02 in -RA
20:15 35.9 °F 34.6 °F 29.79 in ESE 3.0 mph 13.0 mph 95% 0.01 in -RA
20:30 35.9 °F 34.6 °F 29.79 in ENE 2.0 mph 17.0 mph 95% 0.02 in -RA
20:45 35.8 °F 34.5 °F 29.79 in ENE 2.0 mph 18.0 mph 95% 0.04 in -RA
21:00 35.9 °F 34.6 °F 29.80 in NNE 3.0 mph 17.0 mph 95% 0.00 in -RA
21:15 35.9 °F 34.6 °F 29.79 in North 3.0 mph 13.0 mph 95% 0.01 in RA
21:30 35.9 °F 34.6 °F 29.79 in ENE 7.0 mph 18.0 mph 95% 0.02 in RA
21:45 36.0 °F 34.7 °F 29.81 in SE 2.0 mph 12.0 mph 95% 0.03 in RA
22:00 36.0 °F 34.7 °F 29.80 in East 2.0 mph 18.0 mph 95% 0.01 in RA
22:15 36.1 °F 34.8 °F 29.79 in NE 3.0 mph 14.0 mph 95% 0.02 in -RA
22:30 36.1 °F 34.8 °F 29.78 in North 3.0 mph 16.0 mph 95% 0.02 in -RA
22:45 36.0 °F 34.8 °F 29.78 in NE 2.0 mph 14.0 mph 95% 0.02 in -RA
23:00 36.0 °F 34.7 °F 29.77 in West 2.0 mph 12.0 mph 95% 0.01 in -RA
23:15 35.7 °F 34.4 °F 29.77 in North 2.0 mph 12.0 mph 95% 0.00 in -RA
23:30 35.5 °F 34.3 °F 29.76 in West 1.0 mph 12.0 mph 95% 0.01 in -RA
23:45 35.5 °F 34.2 °F 29.76 in NW 1.0 mph 15.0 mph 95% 0.00 in -RA
TarryTown NY Weather
Compliments of Weather Underground - 1.5 mb